Time;durP1;ratioP1;P1;durP2;ratioP2;P2;SDS_P1;SDS_P2;PMS_P1;PMS_P2;Temp;Humidity;BMP_temperature;BMP_pressure;BME280_temperature;BME280_humidity;BME280_pressure;Samples;Min_cycle;Max_cycle;Signal;HPM_P1;HPM_P2
2023/10/29 00:00:11;;;;;;;3.13;0.30;;;13.20;99.90;;;;;;4917623;29;20063;-76
2023/10/29 00:02:36;;;;;;;1.63;0.30;;;13.20;99.90;;;;;;4900222;29;20037;-75
2023/10/29 00:05:03;;;;;;;3.75;0.90;;;13.30;99.90;;;;;;4900113;29;20035;-76
2023/10/29 00:07:28;;;;;;;2.78;0.50;;;13.30;99.90;;;;;;4900180;29;20039;-76
2023/10/29 00:09:54;;;;;;;4.80;0.57;;;13.20;99.90;;;;;;4900281;29;20024;-76
2023/10/29 00:12:20;;;;;;;2.72;0.35;;;13.30;99.90;;;;;;4900046;29;20040;-76
2023/10/29 00:14:46;;;;;;;2.70;0.40;;;13.30;99.90;;;;;;4900267;29;20119;-75
2023/10/29 00:17:12;;;;;;;3.58;0.30;;;13.30;99.90;;;;;;4884722;29;20056;-76
2023/10/29 00:19:37;;;;;;;2.25;0.30;;;13.40;99.90;;;;;;4884455;29;20042;-76
2023/10/29 00:22:03;;;;;;;1.48;0.30;;;13.40;99.90;;;;;;4900256;29;20485;-76
2023/10/29 00:24:29;;;;;;;3.03;0.40;;;13.40;99.90;;;;;;4898019;29;20524;-76
2023/10/29 00:26:55;;;;;;;2.70;0.40;;;13.40;99.90;;;;;;4897905;29;20047;-76
2023/10/29 00:29:21;;;;;;;3.90;0.22;;;13.50;99.90;;;;;;4881211;29;20033;-76
2023/10/29 00:31:47;;;;;;;1.60;0.45;;;13.50;99.90;;;;;;4898098;29;20033;-75
2023/10/29 00:34:13;;;;;;;2.45;0.30;;;13.60;99.90;;;;;;4898514;29;20468;-76
2023/10/29 00:36:38;;;;;;;1.92;0.30;;;13.50;99.90;;;;;;4865941;29;20032;-76
2023/10/29 00:39:04;;;;;;;1.45;0.22;;;13.50;99.90;;;;;;4898554;29;20115;-76
2023/10/29 00:41:30;;;;;;;2.65;0.50;;;13.60;99.90;;;;;;4881958;29;20047;-76
2023/10/29 00:43:56;;;;;;;1.55;0.20;;;13.60;99.90;;;;;;4865857;29;20433;-76
2023/10/29 00:46:23;;;;;;;0.95;0.20;;;13.60;99.90;;;;;;4866419;29;20163;-77
2023/10/29 00:48:50;;;;;;;3.33;0.30;;;13.60;99.90;;;;;;4881264;29;20116;-77
2023/10/29 00:51:16;;;;;;;0.63;0.20;;;13.60;99.90;;;;;;4881626;29;20351;-76
2023/10/29 00:53:43;;;;;;;3.05;0.30;;;13.70;99.90;;;;;;4880873;29;20056;-76
2023/10/29 00:56:10;;;;;;;1.15;0.30;;;13.70;99.90;;;;;;4897825;29;20041;-76
2023/10/29 00:58:36;;;;;;;2.50;0.28;;;13.60;99.90;;;;;;4866409;29;20127;-76
2023/10/29 01:01:01;;;;;;;6.10;0.30;;;13.60;99.90;;;;;;4881950;29;20036;-76
2023/10/29 01:03:27;;;;;;;1.30;0.30;;;13.70;99.90;;;;;;4898210;29;20036;-76
2023/10/29 01:05:53;;;;;;;2.42;0.38;;;13.60;99.90;;;;;;4866108;29;20081;-76
2023/10/29 01:08:19;;;;;;;1.25;0.30;;;13.70;99.90;;;;;;4881433;29;20036;-76
2023/10/29 01:10:45;;;;;;;1.65;0.20;;;13.70;99.90;;;;;;4881592;29;20115;-76
2023/10/29 01:13:11;;;;;;;3.00;0.20;;;13.70;99.90;;;;;;4898173;29;20397;-76
2023/10/29 01:15:36;;;;;;;3.03;0.20;;;13.70;99.90;;;;;;4897541;29;20092;-76
2023/10/29 01:18:02;;;;;;;5.45;0.25;;;13.80;99.90;;;;;;4897520;29;20041;-76
2023/10/29 01:20:28;;;;;;;3.95;0.52;;;13.80;99.90;;;;;;4885481;29;20478;-76
2023/10/29 01:22:53;;;;;;;1.75;0.30;;;13.70;99.90;;;;;;4917026;29;20075;-76
2023/10/29 01:25:19;;;;;;;2.05;0.28;;;13.70;99.90;;;;;;4916390;29;20036;-76
2023/10/29 01:27:45;;;;;;;1.73;0.22;;;13.80;99.90;;;;;;4916264;29;20044;-76
2023/10/29 01:30:11;;;;;;;3.08;0.60;;;13.80;99.90;;;;;;4918512;29;20028;-76
2023/10/29 01:32:38;;;;;;;0.68;0.20;;;13.80;99.90;;;;;;4903689;29;20056;-76
2023/10/29 01:35:04;;;;;;;2.40;0.20;;;13.80;99.90;;;;;;4903228;29;20036;-76
2023/10/29 01:37:30;;;;;;;2.33;0.32;;;13.90;99.90;;;;;;4902864;29;20028;-76
2023/10/29 01:39:56;;;;;;;0.77;0.20;;;13.90;99.90;;;;;;4887342;29;20531;-76
2023/10/29 01:42:22;;;;;;;2.08;0.40;;;13.80;99.90;;;;;;4920033;29;20036;-76
2023/10/29 01:44:48;;;;;;;3.55;0.55;;;13.90;99.90;;;;;;4919700;29;20047;-76
2023/10/29 01:47:14;;;;;;;2.45;0.50;;;13.90;99.90;;;;;;4919454;29;20114;-76
2023/10/29 01:49:39;;;;;;;3.08;0.60;;;13.80;99.90;;;;;;4919979;29;20035;-76
2023/10/29 01:52:05;;;;;;;5.07;0.40;;;13.80;99.90;;;;;;4919368;29;20028;-77
2023/10/29 01:54:31;;;;;;;1.95;0.40;;;13.80;99.90;;;;;;4919610;29;20120;-78
2023/10/29 01:56:56;;;;;;;2.95;0.50;;;13.80;99.90;;;;;;4886968;29;20437;-76
2023/10/29 01:59:22;;;;;;;4.40;1.17;;;13.80;99.90;;;;;;4902333;29;20088;-77
2023/10/29 02:01:48;;;;;;;2.95;0.30;;;13.80;99.90;;;;;;4919674;29;20040;-76
2023/10/29 02:04:14;;;;;;;1.08;0.20;;;13.90;99.90;;;;;;4887633;29;20040;-76
2023/10/29 02:06:40;;;;;;;1.13;0.30;;;13.90;99.90;;;;;;4902546;29;20060;-75
2023/10/29 02:09:08;;;;;;;3.33;0.30;;;13.90;99.90;;;;;;4919323;29;20051;-76
2023/10/29 02:11:34;;;;;;;3.58;0.20;;;13.90;99.90;;;;;;4919741;29;20119;-76
2023/10/29 02:14:00;;;;;;;1.35;0.28;;;13.90;99.90;;;;;;4919612;29;20086;-76
2023/10/29 02:16:25;;;;;;;2.20;0.20;;;14.00;99.90;;;;;;4919400;29;20484;-76
2023/10/29 02:18:51;;;;;;;1.45;0.30;;;14.00;99.90;;;;;;4886624;29;20032;-76
2023/10/29 02:21:17;;;;;;;3.72;0.30;;;14.00;99.90;;;;;;4886233;29;20062;-76
2023/10/29 02:23:42;;;;;;;2.55;0.20;;;14.00;99.90;;;;;;4902024;29;20469;-76
2023/10/29 02:26:08;;;;;;;2.65;0.40;;;14.00;99.90;;;;;;4918744;29;20036;-76
2023/10/29 02:28:34;;;;;;;1.58;0.30;;;14.00;99.90;;;;;;4902071;29;20059;-76
2023/10/29 02:30:59;;;;;;;1.88;0.20;;;14.10;99.90;;;;;;4918865;29;20469;-76
2023/10/29 02:33:25;;;;;;;1.23;0.20;;;14.10;99.90;;;;;;4918671;29;20032;-76
2023/10/29 02:35:50;;;;;;;1.20;0.20;;;14.10;99.90;;;;;;4918557;29;20039;-76
2023/10/29 02:38:18;;;;;;;2.05;0.20;;;14.10;99.90;;;;;;4918886;29;20124;-76
2023/10/29 02:40:44;;;;;;;1.45;0.28;;;14.10;99.90;;;;;;4918395;29;20039;-77
2023/10/29 02:43:10;;;;;;;2.15;0.30;;;14.10;99.90;;;;;;4886208;29;20357;-76
2023/10/29 02:45:36;;;;;;;1.92;0.20;;;14.10;99.90;;;;;;4902024;29;20043;-77
2023/10/29 02:48:02;;;;;;;3.70;0.20;;;14.20;99.90;;;;;;4918954;29;20044;-77
2023/10/29 02:50:27;;;;;;;2.75;0.30;;;14.10;99.90;;;;;;4918529;29;20385;-77
2023/10/29 02:52:53;;;;;;;0.90;0.20;;;14.10;99.90;;;;;;4901368;29;20032;-78
2023/10/29 02:55:19;;;;;;;2.67;0.30;;;14.20;99.90;;;;;;4918822;29;20040;-78
2023/10/29 02:57:44;;;;;;;1.75;0.60;;;14.20;99.90;;;;;;4918473;29;20043;-78
2023/10/29 03:00:12;;;;;;;3.65;0.40;;;14.20;99.90;;;;;;4918467;29;20040;-78
2023/10/29 03:02:38;;;;;;;3.45;0.30;;;14.20;99.90;;;;;;4918410;29;20024;-78
2023/10/29 03:05:04;;;;;;;2.15;0.30;;;14.20;99.90;;;;;;4918383;29;20052;-77
2023/10/29 03:07:30;;;;;;;4.50;0.50;;;14.20;99.90;;;;;;4918066;29;20043;-78
2023/10/29 03:09:56;;;;;;;3.80;0.20;;;14.20;99.90;;;;;;4901616;29;20127;-77
2023/10/29 03:12:22;;;;;;;2.25;0.40;;;14.20;99.90;;;;;;4917989;29;20070;-78
2023/10/29 03:14:47;;;;;;;0.90;0.20;;;14.30;99.90;;;;;;4901576;29;20036;-78
2023/10/29 03:17:13;;;;;;;1.52;0.20;;;14.30;99.90;;;;;;4918302;29;20039;-78
2023/10/29 03:19:39;;;;;;;2.33;0.30;;;14.30;99.90;;;;;;4885217;29;20044;-78
2023/10/29 03:22:05;;;;;;;0.75;0.20;;;14.30;99.90;;;;;;4901322;29;20060;-78
2023/10/29 03:24:31;;;;;;;1.90;0.20;;;14.30;99.90;;;;;;4901773;29;20046;-78
2023/10/29 03:26:56;;;;;;;1.77;0.30;;;14.30;99.90;;;;;;4918961;29;20032;-78
2023/10/29 03:29:22;;;;;;;1.92;0.30;;;14.30;99.90;;;;;;4919036;29;20028;-78
2023/10/29 03:31:47;;;;;;;2.88;0.30;;;14.30;99.90;;;;;;4886118;29;20358;-78
2023/10/29 03:34:13;;;;;;;4.28;0.20;;;14.30;99.90;;;;;;4885320;29;20123;-78
2023/10/29 03:36:39;;;;;;;4.88;0.50;;;14.30;99.90;;;;;;4901285;29;20080;-78
2023/10/29 03:39:05;;;;;;;1.23;0.10;;;14.40;99.90;;;;;;4918022;29;20055;-78
2023/10/29 03:41:31;;;;;;;2.42;0.20;;;14.30;99.90;;;;;;4900713;29;20131;-77
2023/10/29 03:43:57;;;;;;;0.93;0.17;;;14.40;99.90;;;;;;4900902;29;20115;-78
2023/10/29 03:46:23;;;;;;;2.17;0.55;;;14.40;99.90;;;;;;4900494;29;20060;-78
2023/10/29 03:48:48;;;;;;;2.58;0.20;;;14.40;99.90;;;;;;4900972;29;20036;-77
2023/10/29 03:51:14;;;;;;;1.58;0.10;;;14.40;99.90;;;;;;4917489;29;20381;-78
2023/10/29 03:53:40;;;;;;;0.93;0.17;;;14.40;99.90;;;;;;4899861;29;20047;-77
2023/10/29 03:56:06;;;;;;;1.42;0.13;;;14.40;99.90;;;;;;4917523;29;20036;-78
2023/10/29 03:58:32;;;;;;;1.95;0.30;;;14.40;99.90;;;;;;4900110;29;20155;-77
2023/10/29 04:00:58;;;;;;;2.10;0.20;;;14.40;99.90;;;;;;4900338;29;20075;-78
2023/10/29 04:03:23;;;;;;;0.93;0.10;;;14.40;99.90;;;;;;4885432;29;20035;-77
2023/10/29 04:05:49;;;;;;;0.95;0.10;;;14.50;99.90;;;;;;4916973;29;20047;-79
2023/10/29 04:08:16;;;;;;;3.50;0.20;;;14.50;99.90;;;;;;4884863;29;20103;-78
2023/10/29 04:10:42;;;;;;;2.90;0.20;;;14.40;99.90;;;;;;4917543;29;20111;-78
2023/10/29 04:13:08;;;;;;;0.93;0.10;;;14.50;99.90;;;;;;4917203;29;20263;-78
2023/10/29 04:15:33;;;;;;;1.63;0.10;;;14.50;99.90;;;;;;4900248;29;20401;-78
2023/10/29 04:17:59;;;;;;;4.25;0.10;;;14.40;99.90;;;;;;4917563;29;20501;-78
2023/10/29 04:20:25;;;;;;;4.45;0.20;;;14.40;99.90;;;;;;4884709;29;20115;-78
2023/10/29 04:22:50;;;;;;;3.13;0.20;;;14.40;99.90;;;;;;4900638;29;20052;-79
2023/10/29 04:25:16;;;;;;;0.55;0.10;;;14.40;99.90;;;;;;4900099;29;20035;-78
2023/10/29 04:27:42;;;;;;;1.10;0.20;;;14.40;99.90;;;;;;4916988;29;20418;-78
2023/10/29 04:30:08;;;;;;;1.65;0.20;;;14.40;99.90;;;;;;4916807;29;20112;-78
2023/10/29 04:32:33;;;;;;;3.25;0.20;;;14.40;99.90;;;;;;4917014;29;20036;-78
2023/10/29 04:34:59;;;;;;;1.75;0.10;;;14.40;99.90;;;;;;4900130;29;20433;-79
2023/10/29 04:37:25;;;;;;;1.08;0.10;;;14.40;99.90;;;;;;4900535;29;20107;-78
2023/10/29 04:39:50;;;;;;;0.75;0.10;;;14.40;99.90;;;;;;4899976;29;20032;-78
2023/10/29 04:42:16;;;;;;;1.52;0.10;;;14.40;99.90;;;;;;4884372;29;20083;-79
2023/10/29 04:44:42;;;;;;;1.02;0.15;;;14.40;99.90;;;;;;4916874;29;20441;-79
2023/10/29 04:47:08;;;;;;;1.00;0.10;;;14.40;99.90;;;;;;4917297;29;20055;-78
2023/10/29 04:49:33;;;;;;;2.97;0.10;;;14.40;99.90;;;;;;4917325;29;20446;-79
2023/10/29 04:51:59;;;;;;;1.08;0.10;;;14.40;99.90;;;;;;4916816;29;20060;-78
2023/10/29 04:54:25;;;;;;;2.17;0.13;;;14.40;99.90;;;;;;4916973;29;20092;-79
2023/10/29 04:56:50;;;;;;;2.58;0.20;;;14.40;99.90;;;;;;4916548;29;20465;-78
2023/10/29 04:59:16;;;;;;;1.30;0.20;;;14.40;99.90;;;;;;4899887;29;20052;-79
2023/10/29 05:01:42;;;;;;;1.67;0.10;;;14.40;99.90;;;;;;4900367;29;20365;-78
2023/10/29 05:04:07;;;;;;;0.98;0.28;;;14.40;99.90;;;;;;4901402;29;20028;-78
2023/10/29 05:06:33;;;;;;;0.75;0.10;;;14.40;99.90;;;;;;4887884;29;20036;-78
2023/10/29 05:08:58;;;;;;;0.95;0.20;;;14.40;99.90;;;;;;4920720;29;20032;-78
2023/10/29 05:11:24;;;;;;;1.55;0.13;;;14.30;99.90;;;;;;4920430;29;20043;-79
2023/10/29 05:13:50;;;;;;;1.88;0.20;;;14.30;99.90;;;;;;4903499;29;20047;-79
2023/10/29 05:16:16;;;;;;;1.65;0.20;;;14.30;99.90;;;;;;4888128;29;20128;-78
2023/10/29 05:18:41;;;;;;;1.95;0.10;;;14.30;99.90;;;;;;4887932;29;20040;-79
2023/10/29 05:21:07;;;;;;;1.40;0.20;;;14.20;99.90;;;;;;4903587;29;20116;-78
2023/10/29 05:23:34;;;;;;;2.17;0.20;;;14.20;99.90;;;;;;4887509;29;20033;-79
2023/10/29 05:26:00;;;;;;;2.08;0.20;;;14.20;99.90;;;;;;4887237;29;20040;-78
2023/10/29 05:28:26;;;;;;;1.63;0.20;;;14.20;99.90;;;;;;4919770;29;20090;-79
2023/10/29 05:30:52;;;;;;;1.33;0.20;;;14.20;99.90;;;;;;4919808;29;20396;-79
2023/10/29 05:33:18;;;;;;;0.95;0.10;;;14.20;99.90;;;;;;4919660;29;20032;-79
2023/10/29 05:35:45;;;;;;;4.03;0.20;;;14.20;99.90;;;;;;4919780;29;20206;-79
2023/10/29 05:38:10;;;;;;;1.85;0.20;;;14.20;99.90;;;;;;4872122;29;20419;-79
2023/10/29 05:40:36;;;;;;;1.38;0.10;;;14.20;99.90;;;;;;4920068;29;20070;-79
2023/10/29 05:43:02;;;;;;;4.82;0.30;;;14.20;99.90;;;;;;4902812;29;20120;-79
2023/10/29 05:45:28;;;;;;;2.92;0.93;;;14.20;99.90;;;;;;4902800;29;20040;-79
2023/10/29 05:47:55;;;;;;;2.40;0.30;;;14.20;99.90;;;;;;4903087;29;20036;-79
2023/10/29 05:50:22;;;;;;;4.63;0.40;;;14.20;99.90;;;;;;4919972;29;20036;-79
2023/10/29 05:52:48;;;;;;;1.98;0.30;;;14.10;99.90;;;;;;4888122;29;20028;-79
2023/10/29 05:55:14;;;;;;;2.55;0.43;;;14.10;99.90;;;;;;4903680;29;20036;-78
2023/10/29 05:57:39;;;;;;;3.80;0.20;;;14.10;99.90;;;;;;4920637;29;20544;-79
2023/10/29 06:00:06;;;;;;;2.00;0.17;;;14.10;99.90;;;;;;4904005;29;20521;-79
2023/10/29 06:02:32;;;;;;;3.78;0.22;;;14.10;99.90;;;;;;4919901;29;20040;-78
2023/10/29 06:04:57;;;;;;;2.08;0.13;;;14.10;99.90;;;;;;4902203;29;20044;-79
2023/10/29 06:07:23;;;;;;;2.63;0.20;;;14.10;99.90;;;;;;4902687;29;20040;-79
2023/10/29 06:09:48;;;;;;;2.75;0.17;;;14.10;99.90;;;;;;4919081;29;20044;-78
2023/10/29 06:12:14;;;;;;;2.03;0.20;;;14.10;99.90;;;;;;4902593;29;20433;-79
2023/10/29 06:14:40;;;;;;;2.45;0.22;;;14.10;99.90;;;;;;4919105;29;20055;-78
2023/10/29 06:17:06;;;;;;;2.75;0.20;;;14.10;99.90;;;;;;4918657;29;20466;-79
2023/10/29 06:19:33;;;;;;;3.53;0.20;;;14.10;99.90;;;;;;4902278;29;20032;-78
2023/10/29 06:21:59;;;;;;;2.20;0.63;;;14.10;99.90;;;;;;4902572;29;20052;-78
2023/10/29 06:24:24;;;;;;;1.70;0.30;;;14.10;99.90;;;;;;4919213;29;20474;-77
2023/10/29 06:26:50;;;;;;;0.88;0.10;;;14.10;99.90;;;;;;4919329;29;20040;-77
2023/10/29 06:29:16;;;;;;;1.88;0.52;;;14.10;99.90;;;;;;4902479;29;20040;-77
2023/10/29 06:31:41;;;;;;;3.47;0.10;;;14.10;99.90;;;;;;4902238;29;20040;-78
2023/10/29 06:34:08;;;;;;;2.50;0.15;;;14.00;99.90;;;;;;4902230;29;20106;-77
2023/10/29 06:36:34;;;;;;;3.78;0.20;;;14.00;99.90;;;;;;4902361;29;20060;-78
2023/10/29 06:39:00;;;;;;;3.92;0.20;;;14.00;99.90;;;;;;4901717;29;20060;-78
2023/10/29 06:41:25;;;;;;;2.58;0.20;;;14.00;99.90;;;;;;4886741;29;20067;-78
2023/10/29 06:43:51;;;;;;;1.42;0.28;;;13.90;99.90;;;;;;4886658;29;20033;-77
2023/10/29 06:46:17;;;;;;;3.75;0.38;;;13.90;99.90;;;;;;4918638;29;20429;-78
2023/10/29 06:48:42;;;;;;;1.00;0.10;;;13.90;99.90;;;;;;4901716;29;20397;-77
2023/10/29 06:51:10;;;;;;;3.20;0.10;;;13.90;99.90;;;;;;4918331;29;20513;-77
2023/10/29 06:53:38;;;;;;;2.38;0.25;;;14.00;99.90;;;;;;4918650;29;20024;-77
2023/10/29 06:56:05;;;;;;;6.97;0.22;;;13.90;99.90;;;;;;4901415;29;20095;-78
2023/10/29 06:58:31;;;;;;;1.88;0.10;;;13.90;99.90;;;;;;4885991;29;20502;-77
2023/10/29 07:01:08;;;;;;;3.55;0.10;;;13.90;99.90;;;;;;4918360;29;20032;-77
2023/10/29 07:03:34;;;;;;;1.02;0.10;;;13.90;99.90;;;;;;4886448;29;20536;-77
2023/10/29 07:06:08;;;;;;;1.67;0.20;;;13.80;99.90;;;;;;4918297;29;20123;-78
2023/10/29 07:08:35;;;;;;;3.30;0.28;;;13.80;99.90;;;;;;4918517;29;20036;-78
2023/10/29 07:11:02;;;;;;;2.83;0.40;;;13.80;99.90;;;;;;4886348;29;20063;-76
2023/10/29 07:13:28;;;;;;;4.85;0.30;;;13.80;99.90;;;;;;4918070;29;20028;-77
2023/10/29 07:15:55;;;;;;;6.07;0.20;;;13.90;99.90;;;;;;4918072;29;20036;-77
2023/10/29 07:18:22;;;;;;;6.10;0.28;;;13.90;99.90;;;;;;4917696;29;20028;-78
2023/10/29 07:20:52;;;;;;;4.55;0.30;;;13.90;99.90;;;;;;4885165;29;20084;-78
2023/10/29 07:23:18;;;;;;;5.03;0.57;;;13.90;99.90;;;;;;4918037;29;20057;-77
2023/10/29 07:25:44;;;;;;;8.30;0.82;;;13.90;99.90;;;;;;4901101;29;20040;-78
2023/10/29 07:28:09;;;;;;;4.60;0.30;;;13.90;99.90;;;;;;4899841;29;20585;-78
2023/10/29 07:30:35;;;;;;;3.15;0.20;;;14.00;99.90;;;;;;4900813;29;20084;-78
2023/10/29 07:33:01;;;;;;;4.15;0.20;;;14.00;99.90;;;;;;4885172;29;20513;-77
2023/10/29 07:35:26;;;;;;;4.78;0.30;;;14.10;99.90;;;;;;4900819;29;20032;-77
2023/10/29 07:37:52;;;;;;;3.47;0.65;;;14.10;99.90;;;;;;4901131;29;20032;-78
2023/10/29 07:40:17;;;;;;;4.10;0.30;;;14.10;99.90;;;;;;4900628;29;20047;-77
2023/10/29 07:42:43;;;;;;;6.70;0.47;;;14.10;99.90;;;;;;4917555;29;20028;-77
2023/10/29 07:45:09;;;;;;;11.02;0.30;;;14.20;99.90;;;;;;4900677;29;20072;-78
2023/10/29 07:47:34;;;;;;;7.32;0.40;;;14.20;99.90;;;;;;4900422;29;20047;-77
2023/10/29 07:50:00;;;;;;;7.47;0.80;;;14.20;99.90;;;;;;4885404;29;20036;-78
2023/10/29 07:52:26;;;;;;;4.50;0.30;;;14.20;99.90;;;;;;4884949;29;20081;-77
2023/10/29 07:54:51;;;;;;;6.10;0.40;;;14.20;99.90;;;;;;4869106;29;20036;-76
2023/10/29 07:57:17;;;;;;;5.07;0.50;;;14.20;99.90;;;;;;4917301;29;20052;-76
2023/10/29 07:59:43;;;;;;;7.32;0.50;;;14.20;99.90;;;;;;4900924;29;20079;-77
2023/10/29 08:02:08;;;;;;;7.70;0.40;;;14.30;99.90;;;;;;4884771;29;20028;-77
2023/10/29 08:04:34;;;;;;;7.20;0.57;;;14.20;99.90;;;;;;4918041;29;20036;-77
2023/10/29 08:07:00;;;;;;;5.95;0.60;;;14.30;99.90;;;;;;4917667;29;20063;-77
2023/10/29 08:09:26;;;;;;;8.07;0.82;;;14.30;99.90;;;;;;4885417;29;20375;-76
2023/10/29 08:11:52;;;;;;;6.47;0.68;;;14.30;99.90;;;;;;4916888;29;20492;-76
2023/10/29 08:14:18;;;;;;;11.10;0.68;;;14.30;99.90;;;;;;4900268;29;20058;-76
2023/10/29 08:16:43;;;;;;;7.75;0.50;;;14.30;99.90;;;;;;4917080;29;20083;-77
2023/10/29 08:19:09;;;;;;;9.07;0.70;;;14.30;99.90;;;;;;4886612;29;20032;-76
2023/10/29 08:21:35;;;;;;;4.40;0.50;;;14.40;99.90;;;;;;4904224;29;20086;-76
2023/10/29 08:24:00;;;;;;;7.22;0.80;;;14.40;99.90;;;;;;4867138;29;20033;-77
2023/10/29 08:26:28;;;;;;;5.20;0.77;;;14.40;99.90;;;;;;4882477;29;20101;-76
2023/10/29 08:28:54;;;;;;;6.30;0.57;;;14.50;99.90;;;;;;4885078;29;20123;-76
2023/10/29 08:31:21;;;;;;;9.95;0.85;;;14.50;99.90;;;;;;4882441;29;20513;-77
2023/10/29 08:33:47;;;;;;;13.55;0.98;;;14.50;99.90;;;;;;4851055;29;20029;-77
2023/10/29 08:36:16;;;;;;;6.50;0.50;;;14.50;99.90;;;;;;4898416;29;20473;-76
2023/10/29 08:38:42;;;;;;;5.15;0.52;;;14.50;99.90;;;;;;4865727;29;20390;-76
2023/10/29 08:41:15;;;;;;;9.60;1.15;;;14.60;99.90;;;;;;4897883;29;20087;-77
2023/10/29 08:43:41;;;;;;;8.50;0.73;;;14.70;99.90;;;;;;4898422;29;20029;-78
2023/10/29 08:46:07;;;;;;;6.40;0.60;;;14.70;99.90;;;;;;4898182;29;20051;-77
2023/10/29 08:48:33;;;;;;;6.97;0.88;;;14.80;99.90;;;;;;4897730;29;20169;-78
2023/10/29 08:50:59;;;;;;;5.03;0.50;;;14.90;99.90;;;;;;4898008;29;20470;-77
2023/10/29 08:53:24;;;;;;;9.27;1.02;;;14.90;99.90;;;;;;4881138;29;20489;-76
2023/10/29 08:55:51;;;;;;;8.00;0.60;;;15.00;99.90;;;;;;4897823;29;20477;-76
2023/10/29 08:58:17;;;;;;;4.22;0.45;;;15.00;99.90;;;;;;4865832;29;20053;-77
2023/10/29 09:00:45;;;;;;;7.60;0.50;;;15.00;99.90;;;;;;4898173;29;20037;-77
2023/10/29 09:03:13;;;;;;;7.95;0.90;;;15.00;99.90;;;;;;4897646;29;20045;-76
2023/10/29 09:05:39;;;;;;;8.10;0.80;;;15.00;99.90;;;;;;4881451;29;20037;-76
2023/10/29 09:08:06;;;;;;;4.60;0.68;;;15.00;99.90;;;;;;4881619;29;20036;-76
2023/10/29 09:10:32;;;;;;;5.45;0.40;;;15.10;99.90;;;;;;4881154;29;20084;-77
2023/10/29 09:12:58;;;;;;;6.18;0.60;;;15.10;99.90;;;;;;4865736;29;20422;-76
2023/10/29 09:15:24;;;;;;;6.55;0.90;;;15.20;99.90;;;;;;4865461;29;20155;-76
2023/10/29 09:17:50;;;;;;;8.57;0.63;;;15.30;99.90;;;;;;4897773;29;20211;-76
2023/10/29 09:20:15;;;;;;;8.63;0.80;;;15.30;99.90;;;;;;4880388;29;20131;-77
2023/10/29 09:22:41;;;;;;;8.10;0.90;;;15.40;99.90;;;;;;4898020;29;20033;-77
2023/10/29 09:25:07;;;;;;;4.03;0.60;;;15.40;99.90;;;;;;4849652;29;20150;-76
2023/10/29 09:27:32;;;;;;;9.25;0.70;;;15.30;99.90;;;;;;4880752;29;20561;-77
2023/10/29 09:29:58;;;;;;;9.10;1.05;;;15.20;99.90;;;;;;4880810;29;20032;-76
2023/10/29 09:32:24;;;;;;;10.57;1.17;;;15.20;99.90;;;;;;4880765;29;20068;-76
2023/10/29 09:34:51;;;;;;;3.17;0.45;;;15.20;99.90;;;;;;4897592;29;20497;-77
2023/10/29 09:37:16;;;;;;;7.18;0.95;;;15.20;99.90;;;;;;4865799;29;20036;-76
2023/10/29 09:39:43;;;;;;;8.05;0.82;;;15.20;99.90;;;;;;4897256;29;20033;-76
2023/10/29 09:42:11;;;;;;;6.32;0.43;;;15.10;99.10;;;;;;4865953;29;20039;-77
2023/10/29 09:44:40;;;;;;;7.97;0.80;;;15.20;99.20;;;;;;4880960;29;20051;-77
2023/10/29 09:47:14;;;;;;;5.55;0.88;;;15.30;99.30;;;;;;4880865;29;20096;-77
2023/10/29 09:49:41;;;;;;;5.78;0.80;;;15.40;99.30;;;;;;4897239;29;20107;-78
2023/10/29 09:52:08;;;;;;;7.05;1.27;;;15.40;98.90;;;;;;4900297;29;20029;-78
2023/10/29 09:54:35;;;;;;;5.05;0.50;;;15.50;98.60;;;;;;4884108;29;20115;-78
2023/10/29 09:57:01;;;;;;;5.05;0.50;;;15.50;98.40;;;;;;4901005;29;20045;-77
2023/10/29 09:59:26;;;;;;;4.85;0.45;;;15.50;98.30;;;;;;4884103;29;20385;-77
2023/10/29 10:01:52;;;;;;;7.13;0.50;;;15.40;98.00;;;;;;4868734;29;20028;-77
2023/10/29 10:04:17;;;;;;;3.95;0.30;;;15.40;97.70;;;;;;4900681;29;20478;-77
2023/10/29 10:06:44;;;;;;;5.97;0.60;;;15.40;98.00;;;;;;4900624;29;20116;-77
2023/10/29 10:09:10;;;;;;;7.20;0.60;;;15.50;98.40;;;;;;4900565;29;20036;-78
2023/10/29 10:11:36;;;;;;;6.80;0.77;;;15.60;97.50;;;;;;4883725;29;20048;-77
2023/10/29 10:14:01;;;;;;;7.60;1.38;;;15.80;97.40;;;;;;4883230;29;20094;-77
2023/10/29 10:16:27;;;;;;;7.38;0.60;;;15.80;97.00;;;;;;4900079;29;20040;-77
2023/10/29 10:18:57;;;;;;;8.13;0.77;;;15.80;97.00;;;;;;4868036;29;20123;-78
2023/10/29 10:21:24;;;;;;;6.75;0.82;;;15.90;96.70;;;;;;4891701;29;20060;-77
2023/10/29 10:23:57;;;;;;;6.80;0.60;;;15.90;96.90;;;;;;4883996;29;20119;-78
2023/10/29 10:26:30;;;;;;;4.13;0.50;;;15.80;96.60;;;;;;4868190;29;20036;-77
2023/10/29 10:28:56;;;;;;;;;;;15.80;96.90;;;;;;4900594;29;20036;-77
2023/10/29 10:31:22;;;;;;;6.65;0.88;;;15.70;96.50;;;;;;4900107;29;19907;-77
2023/10/29 10:33:49;;;;;;;9.35;1.25;;;15.70;96.70;;;;;;4883292;29;20088;-78
2023/10/29 10:36:29;;;;;;;6.32;0.50;;;15.60;96.50;;;;;;4883936;29;20037;-77
2023/10/29 10:38:55;;;;;;;5.93;0.90;;;15.60;96.90;;;;;;4900129;29;20039;-77
2023/10/29 10:41:21;;;;;;;8.35;1.10;;;15.50;96.80;;;;;;4868165;29;20032;-77
2023/10/29 10:44:06;;;;;;;7.70;0.80;;;15.60;97.00;;;;;;4883928;29;20036;-77
2023/10/29 10:46:34;;;;;;;7.05;0.52;;;15.40;96.80;;;;;;4901100;29;20032;-77
2023/10/29 10:49:01;;;;;;;7.82;0.73;;;15.40;96.90;;;;;;4868166;29;20095;-77
2023/10/29 10:51:30;;;;;;;9.25;0.98;;;15.40;96.80;;;;;;4883523;29;20033;-77
2023/10/29 10:54:00;;;;;;;6.88;0.50;;;15.50;96.90;;;;;;4900326;29;20040;-78
2023/10/29 10:56:30;;;;;;;7.82;0.73;;;15.60;97.10;;;;;;4899649;29;20033;-77
2023/10/29 10:58:58;;;;;;;4.72;0.70;;;15.60;96.90;;;;;;4882761;29;20036;-77
2023/10/29 11:01:25;;;;;;;5.00;0.75;;;15.70;96.60;;;;;;4899632;29;20053;-77
2023/10/29 11:03:52;;;;;;;6.78;0.60;;;15.70;96.40;;;;;;4899543;29;20040;-78
2023/10/29 11:06:18;;;;;;;9.43;0.93;;;15.70;96.50;;;;;;4866999;29;20437;-76
2023/10/29 11:08:44;;;;;;;7.20;0.70;;;15.70;96.80;;;;;;4882870;29;20040;-77
2023/10/29 11:11:11;;;;;;;6.72;0.85;;;15.70;96.60;;;;;;4899496;29;20037;-77
2023/10/29 11:13:37;;;;;;;7.75;0.60;;;15.70;96.40;;;;;;4882406;29;20033;-77
2023/10/29 11:16:07;;;;;;;9.65;1.02;;;15.70;96.50;;;;;;4899038;29;20047;-76
2023/10/29 11:18:32;;;;;;;7.32;1.10;;;15.60;96.40;;;;;;4899439;29;20052;-76
2023/10/29 11:21:03;;;;;;;6.97;0.70;;;15.50;96.70;;;;;;4890736;29;20088;-76
2023/10/29 11:23:30;;;;;;;6.53;0.63;;;15.50;96.60;;;;;;4900966;29;20032;-76
2023/10/29 11:26:21;;;;;;;5.18;0.43;;;15.50;96.60;;;;;;4917529;29;20362;-76
2023/10/29 11:28:52;;;;;;;5.55;0.47;;;15.40;96.40;;;;;;4917935;29;20039;-75
2023/10/29 11:31:19;;;;;;;8.57;0.82;;;15.40;96.50;;;;;;4901287;29;20446;-76
2023/10/29 11:34:11;;;;;;;7.20;0.75;;;15.40;96.60;;;;;;4917705;29;20111;-77
2023/10/29 11:36:38;;;;;;;10.75;0.80;;;15.30;96.60;;;;;;4867644;29;20036;-76
2023/10/29 11:39:15;;;;;;;6.00;0.60;;;15.30;96.80;;;;;;4917830;29;20032;-76
2023/10/29 11:41:42;;;;;;;4.65;0.60;;;15.30;96.90;;;;;;4917578;29;20032;-77
2023/10/29 11:44:25;;;;;;;6.70;0.95;;;15.30;97.10;;;;;;4900547;29;20079;-77
2023/10/29 11:47:03;;;;;;;8.82;1.00;;;15.30;97.30;;;;;;4917787;29;20048;-77
2023/10/29 11:49:54;;;;;;;6.55;0.95;;;15.30;97.60;;;;;;4917371;29;20107;-76
2023/10/29 11:52:20;;;;;;;8.63;0.63;;;15.30;97.50;;;;;;4908617;29;20130;-76
2023/10/29 11:54:45;;;;;;;6.30;0.68;;;15.30;97.70;;;;;;4900140;29;20092;-77
2023/10/29 11:57:12;;;;;;;6.72;0.65;;;15.40;97.80;;;;;;4917309;29;20032;-77
2023/10/29 11:59:54;;;;;;;10.15;0.85;;;15.40;97.80;;;;;;4900158;29;20119;-77
2023/10/29 12:02:21;;;;;;;7.15;0.55;;;15.40;98.20;;;;;;4917230;29;20107;-77
2023/10/29 12:04:47;;;;;;;7.47;0.88;;;15.40;98.20;;;;;;4917095;29;20040;-77
2023/10/29 12:07:26;;;;;;;10.80;0.80;;;15.40;98.20;;;;;;4900304;29;20036;-78
2023/10/29 12:10:06;;;;;;;8.43;1.02;;;15.50;98.10;;;;;;4900362;29;20032;-76
2023/10/29 12:12:32;;;;;;;12.45;1.38;;;15.50;97.90;;;;;;4917083;29;20028;-77
2023/10/29 12:14:57;;;;;;;5.88;0.73;;;15.50;98.40;;;;;;4884005;29;20037;-77
2023/10/29 12:17:24;;;;;;;7.68;0.88;;;15.70;98.50;;;;;;4899899;29;20070;-77
2023/10/29 12:19:49;;;;;;;7.70;0.88;;;15.90;97.70;;;;;;4917026;29;20056;-76
2023/10/29 12:22:27;;;;;;;7.90;0.70;;;16.10;97.50;;;;;;4884099;29;20084;-77
2023/10/29 12:25:01;;;;;;;6.93;0.60;;;16.30;97.40;;;;;;4916765;29;20032;-77
2023/10/29 12:27:27;;;;;;;7.75;0.68;;;16.40;97.40;;;;;;4885507;29;20354;-77
2023/10/29 12:29:53;;;;;;;8.20;0.85;;;16.50;97.10;;;;;;4916630;29;20031;-77
2023/10/29 12:32:24;;;;;;;7.15;0.82;;;16.50;97.10;;;;;;4916792;29;20051;-77
2023/10/29 12:34:55;;;;;;;7.75;0.70;;;16.50;97.10;;;;;;4917104;29;20040;-77
2023/10/29 12:37:25;;;;;;;6.53;0.70;;;16.40;96.80;;;;;;4916766;29;20032;-77
2023/10/29 12:39:52;;;;;;;5.65;1.10;;;16.30;96.50;;;;;;4899743;29;20032;-77
2023/10/29 12:42:19;;;;;;;8.23;1.10;;;16.30;96.40;;;;;;4916728;29;20040;-77
2023/10/29 12:44:55;;;;;;;6.47;1.38;;;16.20;96.10;;;;;;4900038;29;20047;-77